Time,TemperatureF,DewpointF,PressureIn,WindDirection,WindDirectionDegrees,WindSpeedMPH,WindSpeedGustMPH,Humidity,HourlyPrecipIn,Conditions,Clouds,dailyrainin,SolarRadiationWatts/m^2,SoftwareType,DateUTC
2013-03-07 00:07:00,24.3,22.0,30.07,NE,54,6.0,19.0,90,0.00,,,0.00,0,weatherlink.com 1.10,2013-03-07 05:07:00,
2013-03-07 00:22:00,24.2,22.0,30.07,NNE,17,5.0,18.0,91,0.00,,,0.00,0,weatherlink.com 1.10,2013-03-07 05:22:00,
2013-03-07 00:37:00,24.2,22.0,30.08,WNW,300,11.0,26.0,91,0.00,,,0.00,0,weatherlink.com 1.10,2013-03-07 05:37:00,
2013-03-07 00:52:00,24.1,22.0,30.08,NNW,342,6.0,15.0,91,0.00,,,0.00,0,weatherlink.com 1.10,2013-03-07 05:52:00,
2013-03-07 01:07:00,24.1,22.0,30.09,NNW,335,4.0,16.0,91,0.00,,,0.00,0,weatherlink.com 1.10,2013-03-07 06:07:00,
2013-03-07 01:22:00,24.0,22.0,30.09,NE,43,9.0,19.0,91,0.00,,,0.00,0,weatherlink.com 1.10,2013-03-07 06:22:00,
2013-03-07 01:37:00,24.0,22.0,30.09,WNW,292,13.0,20.0,91,0.00,,,0.00,0,weatherlink.com 1.10,2013-03-07 06:37:00,
2013-03-07 01:52:00,23.9,22.0,30.09,North,350,9.0,13.0,91,0.00,,,0.00,0,weatherlink.com 1.10,2013-03-07 06:52:00,
2013-03-07 02:07:00,23.8,22.0,30.08,NNW,327,6.0,18.0,92,0.00,,,0.00,0,weatherlink.com 1.10,2013-03-07 07:07:00,
2013-03-07 02:22:00,23.8,22.0,30.07,North,360,8.0,16.0,92,0.00,,,0.00,0,weatherlink.com 1.10,2013-03-07 07:22:00,
2013-03-07 02:37:00,23.7,22.0,30.07,North,355,14.0,15.0,92,0.00,,,0.00,0,weatherlink.com 1.10,2013-03-07 07:37:00,
2013-03-07 02:52:00,23.6,22.0,30.07,West,265,7.0,18.0,92,0.00,,,0.00,0,weatherlink.com 1.10,2013-03-07 07:52:00,
2013-03-07 03:22:00,23.3,21.0,30.07,NW,318,5.0,13.0,92,0.00,,,0.00,0,weatherlink.com 1.10,2013-03-07 08:22:00,
2013-03-07 03:37:00,23.3,22.0,30.07,WNW,289,10.0,18.0,93,0.00,,,0.00,0,weatherlink.com 1.10,2013-03-07 08:37:00,
2013-03-07 03:52:00,23.2,22.0,30.07,North,355,8.0,13.0,93,0.00,,,0.00,0,weatherlink.com 1.10,2013-03-07 08:52:00,
2013-03-07 04:07:00,23.1,21.0,30.06,NNW,344,3.0,11.0,93,0.00,,,0.00,0,weatherlink.com 1.10,2013-03-07 09:07:00,
2013-03-07 04:22:00,23.1,21.0,30.07,NNW,336,12.0,14.0,93,0.00,,,0.00,0,weatherlink.com 1.10,2013-03-07 09:22:00,
2013-03-07 04:37:00,23.0,21.0,30.07,NNW,335,10.0,14.0,93,0.00,,,0.00,0,weatherlink.com 1.10,2013-03-07 09:37:00,
2013-03-07 04:52:00,23.0,21.0,30.07,NW,313,2.0,14.0,93,0.00,,,0.00,0,weatherlink.com 1.10,2013-03-07 09:52:00,
2013-03-07 05:07:00,23.0,21.0,30.07,NW,311,7.0,15.0,92,0.00,,,0.00,0,weatherlink.com 1.10,2013-03-07 10:07:00,
2013-03-07 05:23:00,22.9,21.0,30.08,NW,324,20.0,23.0,91,0.00,,,0.00,0,weatherlink.com 1.10,2013-03-07 10:23:00,
2013-03-07 05:38:00,23.0,21.0,30.07,NW,317,4.0,16.0,90,0.00,,,0.00,0,weatherlink.com 1.10,2013-03-07 10:38:00,
2013-03-07 05:53:00,23.0,21.0,30.07,WNW,298,13.0,15.0,90,0.00,,,0.00,0,weatherlink.com 1.10,2013-03-07 10:53:00,
2013-03-07 06:08:00,23.1,21.0,30.06,NNW,347,4.0,15.0,90,0.00,,,0.00,0,weatherlink.com 1.10,2013-03-07 11:08:00,
2013-03-07 06:22:00,23.0,20.0,30.07,NW,319,7.0,11.0,89,0.00,,,0.00,0,weatherlink.com 1.10,2013-03-07 11:22:00,
2013-03-07 06:37:00,23.1,20.0,30.07,NW,307,4.0,13.0,89,0.00,,,0.00,5,weatherlink.com 1.10,2013-03-07 11:37:00,
2013-03-07 06:52:00,23.2,20.0,30.07,NNW,327,4.0,14.0,88,0.00,,,0.00,9,weatherlink.com 1.10,2013-03-07 11:52:00,
2013-03-07 07:07:00,23.3,20.0,30.07,NW,321,7.0,11.0,88,0.00,,,0.00,11,weatherlink.com 1.10,2013-03-07 12:07:00,
2013-03-07 07:23:00,23.4,20.0,30.07,NNW,339,5.0,13.0,87,0.00,,,0.00,19,weatherlink.com 1.10,2013-03-07 12:23:00,
2013-03-07 07:38:00,23.6,20.0,30.08,WNW,296,4.0,12.0,87,0.00,,,0.00,49,weatherlink.com 1.10,2013-03-07 12:38:00,
2013-03-07 07:53:00,23.9,21.0,30.08,NNW,343,5.0,12.0,87,0.00,,,0.00,79,weatherlink.com 1.10,2013-03-07 12:53:00,
2013-03-07 08:08:00,24.3,21.0,30.09,NNE,24,4.0,11.0,87,0.00,,,0.00,135,weatherlink.com 1.10,2013-03-07 13:08:00,
2013-03-07 08:23:00,24.7,21.0,30.09,North,351,10.0,15.0,86,0.00,,,0.00,160,weatherlink.com 1.10,2013-03-07 13:23:00,
2013-03-07 08:38:00,24.9,22.0,30.09,NNW,335,4.0,10.0,87,0.00,,,0.00,130,weatherlink.com 1.10,2013-03-07 13:38:00,
2013-03-07 08:54:00,24.6,21.0,30.09,WNW,285,16.0,16.0,87,0.00,,,0.00,151,weatherlink.com 1.10,2013-03-07 13:54:00,
2013-03-07 09:09:00,24.9,22.0,30.09,NNE,22,6.0,13.0,87,0.00,,,0.00,155,weatherlink.com 1.10,2013-03-07 14:09:00,
2013-03-07 09:24:00,25.2,22.0,30.08,North,355,5.0,13.0,87,0.00,,,0.00,230,weatherlink.com 1.10,2013-03-07 14:24:00,
2013-03-07 09:39:00,26.0,22.0,30.07,North,10,8.0,11.0,86,0.00,,,0.00,262,weatherlink.com 1.10,2013-03-07 14:39:00,
2013-03-07 09:54:00,26.0,22.0,30.07,NNE,24,12.0,16.0,84,0.00,,,0.00,251,weatherlink.com 1.10,2013-03-07 14:54:00,
2013-03-07 10:09:00,26.2,22.0,30.07,NW,321,7.0,11.0,84,0.00,,,0.00,234,weatherlink.com 1.10,2013-03-07 15:09:00,
2013-03-07 10:25:00,26.0,22.0,30.08,North,9,4.0,15.0,85,0.00,,,0.00,223,weatherlink.com 1.10,2013-03-07 15:25:00,
2013-03-07 10:41:00,26.7,23.0,30.08,NNW,334,8.0,11.0,84,0.00,,,0.00,253,weatherlink.com 1.10,2013-03-07 15:41:00,
2013-03-07 10:55:00,27.0,23.0,30.08,NNW,338,5.0,14.0,83,0.00,,,0.00,232,weatherlink.com 1.10,2013-03-07 15:55:00,
2013-03-07 11:11:00,27.1,23.0,30.08,NNW,335,1.0,12.0,84,0.00,,,0.00,229,weatherlink.com 1.10,2013-03-07 16:11:00,
2013-03-07 11:25:00,27.8,23.0,30.08,NNE,13,4.0,11.0,82,0.00,,,0.00,211,weatherlink.com 1.10,2013-03-07 16:25:00,
2013-03-07 11:41:00,28.0,23.0,30.08,NW,308,4.0,11.0,81,0.00,,,0.00,181,weatherlink.com 1.10,2013-03-07 16:41:00,
2013-03-07 11:55:00,27.7,23.0,30.08,NNE,29,7.0,12.0,82,0.00,,,0.00,165,weatherlink.com 1.10,2013-03-07 16:55:00,
2013-03-07 12:11:00,27.8,23.0,30.07,NE,49,6.0,12.0,81,0.00,,,0.00,211,weatherlink.com 1.10,2013-03-07 17:11:00,
2013-03-07 12:26:00,28.3,23.0,30.07,WNW,300,3.0,11.0,81,0.00,,,0.00,200,weatherlink.com 1.10,2013-03-07 17:26:00,
2013-03-07 12:41:00,28.7,23.0,30.07,NW,323,9.0,14.0,80,0.00,,,0.00,239,weatherlink.com 1.10,2013-03-07 17:41:00,
2013-03-07 12:56:00,29.2,23.0,30.06,West,273,10.0,16.0,78,0.00,,,0.00,250,weatherlink.com 1.10,2013-03-07 17:56:00,
2013-03-07 13:11:00,29.3,24.0,30.06,NNE,12,1.0,11.0,79,0.00,,,0.00,251,weatherlink.com 1.10,2013-03-07 18:11:00,
2013-03-07 13:26:00,29.6,24.0,30.05,WNW,293,4.0,12.0,80,0.00,,,0.00,251,weatherlink.com 1.10,2013-03-07 18:26:00,
2013-03-07 13:41:00,29.4,24.0,30.05,NW,315,4.0,11.0,81,0.00,,,0.00,218,weatherlink.com 1.10,2013-03-07 18:41:00,
2013-03-07 13:57:00,29.3,24.0,30.05,WNW,293,10.0,12.0,82,0.00,,,0.00,229,weatherlink.com 1.10,2013-03-07 18:57:00,
2013-03-07 14:12:00,28.8,25.0,30.05,NNW,333,5.0,15.0,85,0.00,,,0.00,251,weatherlink.com 1.10,2013-03-07 19:12:00,
2013-03-07 14:27:00,29.4,26.0,30.05,NNW,329,8.0,12.0,85,0.00,,,0.00,251,weatherlink.com 1.10,2013-03-07 19:27:00,
2013-03-07 14:42:00,29.1,25.0,30.05,WNW,296,4.0,12.0,85,0.00,,,0.00,197,weatherlink.com 1.10,2013-03-07 19:42:00,
2013-03-07 14:57:00,29.0,25.0,30.05,NNE,27,6.0,14.0,86,0.00,,,0.00,156,weatherlink.com 1.10,2013-03-07 19:57:00,
2013-03-07 15:12:00,29.1,25.0,30.06,NW,326,5.0,12.0,86,0.00,,,0.00,123,weatherlink.com 1.10,2013-03-07 20:12:00,
2013-03-07 15:28:00,29.0,26.0,30.06,NW,320,2.0,13.0,87,0.00,,,0.00,109,weatherlink.com 1.10,2013-03-07 20:28:00,
2013-03-07 15:43:00,29.0,26.0,30.06,North,355,4.0,11.0,87,0.00,,,0.00,84,weatherlink.com 1.10,2013-03-07 20:43:00,
2013-03-07 15:58:00,28.4,25.0,30.06,NNW,333,7.0,12.0,88,0.00,,,0.00,51,weatherlink.com 1.10,2013-03-07 20:58:00,
2013-03-07 16:13:00,28.1,26.0,30.06,WNW,301,8.0,10.0,90,0.00,,,0.00,54,weatherlink.com 1.10,2013-03-07 21:13:00,
2013-03-07 16:28:00,28.2,26.0,30.06,NW,319,4.0,11.0,90,0.00,,,0.00,60,weatherlink.com 1.10,2013-03-07 21:28:00,
2013-03-07 16:43:00,27.9,25.0,30.06,NW,323,7.0,15.0,90,0.00,,,0.00,40,weatherlink.com 1.10,2013-03-07 21:43:00,
2013-03-07 16:58:00,27.5,25.0,30.06,NE,36,5.0,18.0,91,0.00,,,0.00,26,weatherlink.com 1.10,2013-03-07 21:58:00,
2013-03-07 17:14:00,27.2,25.0,30.06,NNE,32,7.0,12.0,91,0.00,,,0.00,16,weatherlink.com 1.10,2013-03-07 22:14:00,
2013-03-07 17:29:00,26.8,25.0,30.07,NNW,334,5.0,15.0,92,0.00,,,0.00,11,weatherlink.com 1.10,2013-03-07 22:29:00,
2013-03-07 17:44:00,26.5,25.0,30.07,NE,35,9.0,16.0,92,0.00,,,0.00,0,weatherlink.com 1.10,2013-03-07 22:44:00,
2013-03-07 17:59:00,26.2,24.0,30.07,NW,305,10.0,15.0,92,0.00,,,0.00,0,weatherlink.com 1.10,2013-03-07 22:59:00,
2013-03-07 18:14:00,26.2,24.0,30.07,NNW,332,4.0,16.0,92,0.00,,,0.00,0,weatherlink.com 1.10,2013-03-07 23:14:00,
2013-03-07 18:29:00,26.2,24.0,30.07,West,277,7.0,16.0,92,0.00,,,0.00,0,weatherlink.com 1.10,2013-03-07 23:29:00,
2013-03-07 18:44:00,26.1,24.0,30.07,North,355,8.0,15.0,91,0.00,,,0.00,0,weatherlink.com 1.10,2013-03-07 23:44:00,
2013-03-07 19:01:00,26.0,24.0,30.07,WNW,288,9.0,14.0,91,0.00,,,0.00,0,weatherlink.com 1.10,2013-03-08 00:01:00,
2013-03-07 19:16:00,26.0,24.0,30.07,NW,307,5.0,16.0,91,0.00,,,0.00,0,weatherlink.com 1.10,2013-03-08 00:16:00,
2013-03-07 19:31:00,26.0,24.0,30.07,NNW,327,8.0,16.0,91,0.00,,,0.00,0,weatherlink.com 1.10,2013-03-08 00:31:00,
2013-03-07 19:46:00,25.8,24.0,30.06,NNW,333,11.0,18.0,91,0.00,,,0.00,0,weatherlink.com 1.10,2013-03-08 00:46:00,
2013-03-07 20:01:00,25.6,23.0,30.06,NNE,20,8.0,19.0,91,0.01,,,0.01,0,weatherlink.com 1.10,2013-03-08 01:01:00,
2013-03-07 20:15:00,25.4,23.0,30.06,WSW,258,11.0,16.0,92,0.01,,,0.01,0,weatherlink.com 1.10,2013-03-08 01:15:00,
2013-03-07 20:30:00,25.2,23.0,30.06,NNW,333,5.0,13.0,92,0.01,,,0.01,0,weatherlink.com 1.10,2013-03-08 01:30:00,
2013-03-07 20:45:00,25.1,23.0,30.06,NNW,327,5.0,15.0,92,0.01,,,0.01,0,weatherlink.com 1.10,2013-03-08 01:45:00,
2013-03-07 21:01:00,24.9,23.0,30.05,NW,321,7.0,18.0,93,0.00,,,0.01,0,weatherlink.com 1.10,2013-03-08 02:01:00,
2013-03-07 21:16:00,24.9,23.0,30.05,NW,318,10.0,18.0,93,0.00,,,0.01,0,weatherlink.com 1.10,2013-03-08 02:16:00,
2013-03-07 21:31:00,24.8,23.0,30.05,North,355,9.0,16.0,92,0.01,,,0.02,0,weatherlink.com 1.10,2013-03-08 02:31:00,
2013-03-07 21:49:00,24.8,23.0,30.05,NNW,348,18.0,18.0,92,0.01,,,0.02,0,weatherlink.com 1.10,2013-03-08 02:49:00,
2013-03-07 22:01:00,24.7,23.0,30.05,North,349,4.0,19.0,92,0.01,,,0.02,0,weatherlink.com 1.10,2013-03-08 03:01:00,
2013-03-07 22:16:00,24.6,23.0,30.04,NNW,329,4.0,15.0,93,0.02,,,0.03,0,weatherlink.com 1.10,2013-03-08 03:16:00,
2013-03-07 22:31:00,24.4,23.0,30.04,NW,321,5.0,18.0,93,0.02,,,0.04,0,weatherlink.com 1.10,2013-03-08 03:31:00,
2013-03-07 22:46:00,24.4,23.0,30.04,NNW,340,7.0,15.0,94,0.02,,,0.04,0,weatherlink.com 1.10,2013-03-08 03:46:00,
2013-03-07 23:01:00,24.3,23.0,30.03,NW,314,5.0,14.0,93,0.03,,,0.05,0,weatherlink.com 1.10,2013-03-08 04:01:00,
2013-03-07 23:16:00,24.3,23.0,30.04,NW,312,7.0,16.0,93,0.02,,,0.05,0,weatherlink.com 1.10,2013-03-08 04:16:00,
2013-03-07 23:31:00,24.3,23.0,30.03,NW,317,6.0,18.0,93,0.02,,,0.06,0,weatherlink.com 1.10,2013-03-08 04:31:00,
2013-03-07 23:46:00,24.3,23.0,30.03,NNW,346,4.0,15.0,93,0.02,,,0.06,0,weatherlink.com 1.10,2013-03-08 04:46:00,